Time;durP1;ratioP1;P1;durP2;ratioP2;P2;SDS_P1;SDS_P2;PMS_P1;PMS_P2;Temp;Humidity;BMP_temperature;BMP_pressure;BME280_temperature;BME280_humidity;BME280_pressure;Samples;Min_cycle;Max_cycle;Signal;HPM_P1;HPM_P2
2023/01/15 00:00:04;;;;;;;5.82;0.85;;;7.20;99.90;;;;;;5065844;28;20049;-77
2023/01/15 00:02:31;;;;;;;8.60;1.45;;;7.30;99.90;;;;;;5051065;28;20045;-77
2023/01/15 00:04:56;;;;;;;9.13;1.13;;;7.30;99.90;;;;;;5035119;28;20497;-77
2023/01/15 00:07:22;;;;;;;6.00;1.02;;;7.20;99.90;;;;;;5068711;28;20041;-77
2023/01/15 00:09:49;;;;;;;11.25;2.63;;;7.30;99.90;;;;;;5030732;28;20037;-77
2023/01/15 00:12:14;;;;;;;10.25;1.17;;;7.30;99.90;;;;;;5049750;28;20041;-77
2023/01/15 00:14:40;;;;;;;7.25;1.15;;;7.30;99.90;;;;;;5050584;28;20553;-77
2023/01/15 00:17:05;;;;;;;8.65;1.20;;;7.30;99.90;;;;;;5034662;28;20041;-77
2023/01/15 00:19:31;;;;;;;8.95;1.40;;;7.20;99.90;;;;;;5051189;28;20045;-77
2023/01/15 00:21:57;;;;;;;11.73;1.42;;;7.20;99.90;;;;;;5050886;28;20048;-77
2023/01/15 00:29:53;;;;;;;6.30;1.15;;;7.20;99.90;;;;;;5050051;28;20053;-77
2023/01/15 00:32:19;;;;;;;9.80;1.48;;;7.10;99.90;;;;;;5052009;28;20040;-77
2023/01/15 00:34:45;;;;;;;7.82;1.50;;;7.10;99.90;;;;;;5034237;28;20481;-77
2023/01/15 00:37:10;;;;;;;7.88;1.90;;;7.10;99.90;;;;;;5051957;28;20087;-77
2023/01/15 00:39:36;;;;;;;9.00;1.13;;;7.30;99.90;;;;;;5049980;28;20041;-77
2023/01/15 00:42:02;;;;;;;8.68;1.73;;;7.30;99.90;;;;;;5051594;28;20048;-77
2023/01/15 00:44:27;;;;;;;11.18;1.33;;;7.20;99.90;;;;;;5051555;28;20433;-77
2023/01/15 00:46:53;;;;;;;10.05;1.23;;;7.30;99.90;;;;;;5050503;28;20120;-77
2023/01/15 00:49:18;;;;;;;7.88;1.33;;;7.30;99.90;;;;;;5050569;28;20041;-77
2023/01/15 00:51:44;;;;;;;8.82;1.65;;;7.30;99.90;;;;;;5051062;28;20037;-77
2023/01/15 00:54:10;;;;;;;12.45;2.08;;;7.20;99.90;;;;;;5051517;28;20116;-77
2023/01/15 00:56:35;;;;;;;8.90;1.10;;;7.20;99.90;;;;;;5050925;28;20409;-77
2023/01/15 00:59:03;;;;;;;10.15;1.50;;;7.10;99.90;;;;;;5050598;28;20509;-77
2023/01/15 01:01:29;;;;;;;5.80;1.33;;;7.20;99.90;;;;;;5049932;28;20116;-77
2023/01/15 01:03:54;;;;;;;3.75;0.73;;;7.20;99.90;;;;;;5054419;28;20135;-77
2023/01/15 01:06:20;;;;;;;7.55;1.45;;;7.20;99.90;;;;;;5055175;28;20543;-78
2023/01/15 01:08:47;;;;;;;12.30;1.33;;;7.20;99.90;;;;;;5037385;28;20044;-77
2023/01/15 01:11:16;;;;;;;7.05;1.63;;;7.20;99.90;;;;;;5055326;28;20047;-77
2023/01/15 01:13:43;;;;;;;7.53;2.17;;;7.20;99.90;;;;;;5040891;28;20121;-77
2023/01/15 01:16:22;;;;;;;10.73;1.33;;;7.20;99.90;;;;;;5069715;28;20049;-77
2023/01/15 01:18:48;;;;;;;6.20;1.20;;;7.30;99.90;;;;;;5055122;28;20179;-77
2023/01/15 01:21:14;;;;;;;7.63;1.60;;;7.20;99.90;;;;;;5055020;28;20132;-77
2023/01/15 01:23:39;;;;;;;14.13;1.73;;;7.20;99.90;;;;;;5054209;28;20412;-77
2023/01/15 01:26:05;;;;;;;9.00;1.50;;;7.20;99.90;;;;;;5054902;28;20053;-77
2023/01/15 01:28:30;;;;;;;8.63;1.50;;;7.20;99.90;;;;;;5054107;28;20550;-77
2023/01/15 01:30:56;;;;;;;6.72;1.27;;;7.20;99.90;;;;;;5054078;28;20077;-77
2023/01/15 01:33:22;;;;;;;9.57;1.27;;;7.20;99.90;;;;;;5043979;28;20038;-77
2023/01/15 01:35:49;;;;;;;8.15;2.33;;;7.30;99.90;;;;;;5018309;28;20042;-77
2023/01/15 01:38:15;;;;;;;7.32;1.08;;;7.20;99.90;;;;;;5018213;28;20059;-77
2023/01/15 01:40:40;;;;;;;9.80;1.40;;;7.30;99.90;;;;;;5038002;28;20065;-77
2023/01/15 01:43:21;;;;;;;7.28;1.10;;;7.20;99.90;;;;;;5053174;28;20414;-78
2023/01/15 01:45:47;;;;;;;9.73;1.48;;;7.20;99.90;;;;;;5054613;28;20053;-77
2023/01/15 01:48:14;;;;;;;5.18;0.98;;;7.30;99.90;;;;;;5070717;28;20040;-77
2023/01/15 01:50:40;;;;;;;6.90;1.02;;;7.20;99.90;;;;;;5071446;28;20402;-77
2023/01/15 01:53:11;;;;;;;6.00;1.20;;;7.10;99.90;;;;;;5037270;28;20037;-77
2023/01/15 01:55:37;;;;;;;6.78;1.05;;;7.20;99.90;;;;;;5054670;28;20450;-77
2023/01/15 01:58:06;;;;;;;9.25;1.75;;;7.30;99.90;;;;;;5037865;28;20131;-77
2023/01/15 02:00:34;;;;;;;9.13;1.17;;;7.30;99.90;;;;;;5053553;28;20045;-77
2023/01/15 02:03:03;;;;;;;7.82;1.55;;;7.30;99.90;;;;;;5052947;28;20041;-77
2023/01/15 02:05:32;;;;;;;13.77;2.22;;;7.30;99.90;;;;;;5054086;28;20049;-77
2023/01/15 02:07:59;;;;;;;5.32;0.98;;;7.30;99.90;;;;;;5053277;28;20048;-77
2023/01/15 02:10:25;;;;;;;4.75;0.80;;;7.30;99.90;;;;;;5054110;28;20040;-77
2023/01/15 02:13:14;;;;;;;4.63;1.58;;;7.30;99.90;;;;;;5049995;28;20048;-77
2023/01/15 02:15:47;;;;;;;4.13;0.90;;;7.30;99.90;;;;;;5062271;28;20066;-77
2023/01/15 02:18:22;;;;;;;7.70;1.33;;;7.20;99.90;;;;;;5036520;28;20045;-77
2023/01/15 02:20:54;;;;;;;8.02;1.67;;;7.30;99.90;;;;;;5053966;28;20151;-77
2023/01/15 02:23:40;;;;;;;5.90;1.35;;;7.30;99.90;;;;;;5026560;28;20037;-77
2023/01/15 02:26:28;;;;;;;6.05;1.67;;;7.30;99.90;;;;;;5033892;28;20477;-77
2023/01/15 02:28:58;;;;;;;7.80;1.08;;;7.30;99.90;;;;;;5033811;28;20107;-77
2023/01/15 02:31:28;;;;;;;6.00;1.10;;;7.30;99.90;;;;;;5050416;28;20124;-77
2023/01/15 02:34:16;;;;;;;9.77;2.35;;;7.30;99.90;;;;;;5038757;28;20041;-78
2023/01/15 02:36:57;;;;;;;6.60;1.17;;;7.20;99.90;;;;;;5033772;28;20099;-77
2023/01/15 02:39:26;;;;;;;12.10;1.47;;;7.20;99.90;;;;;;5033403;28;20124;-77
2023/01/15 02:41:54;;;;;;;13.50;1.77;;;7.20;99.90;;;;;;5049870;28;20052;-77
2023/01/15 02:44:22;;;;;;;9.90;2.08;;;7.20;99.90;;;;;;5063078;28;20037;-77
2023/01/15 02:46:48;;;;;;;12.75;2.38;;;7.20;99.90;;;;;;5035571;28;20394;-77
2023/01/15 02:49:18;;;;;;;6.97;1.55;;;7.20;99.90;;;;;;5066778;28;20047;-77
2023/01/15 02:51:51;;;;;;;12.40;1.85;;;7.20;99.90;;;;;;5048072;28;20044;-77
2023/01/15 02:54:18;;;;;;;6.25;1.27;;;7.20;99.90;;;;;;5043530;28;20041;-77
2023/01/15 02:56:46;;;;;;;6.82;1.08;;;7.30;99.90;;;;;;5044156;28;20079;-77
2023/01/15 02:59:39;;;;;;;8.48;1.67;;;7.40;99.90;;;;;;5054510;28;20049;-77
2023/01/15 03:02:10;;;;;;;12.75;1.38;;;7.40;99.90;;;;;;5032851;28;20043;-77
2023/01/15 03:04:57;;;;;;;10.88;2.25;;;7.30;99.90;;;;;;5044976;28;20135;-77
2023/01/15 03:07:38;;;;;;;5.60;1.15;;;7.30;99.90;;;;;;5033500;28;20393;-77
2023/01/15 03:10:05;;;;;;;9.77;1.95;;;7.20;99.90;;;;;;5035571;28;20448;-78
2023/01/15 03:13:01;;;;;;;10.48;1.60;;;7.20;99.90;;;;;;5069662;28;20045;-78
2023/01/15 03:18:18;;;;;;;8.75;1.77;;;7.20;99.90;;;;;;5053137;28;20061;-78
2023/01/15 03:20:50;;;;;;;8.35;1.88;;;7.30;99.90;;;;;;5051514;28;20049;-78
2023/01/15 03:23:18;;;;;;;18.67;2.60;;;7.20;99.90;;;;;;5051785;28;20626;-78
2023/01/15 03:25:48;;;;;;;13.02;2.60;;;7.20;99.90;;;;;;5049871;28;20176;-78
2023/01/15 03:28:17;;;;;;;11.73;2.08;;;7.10;99.90;;;;;;5050898;28;20049;-78
2023/01/15 03:30:43;;;;;;;9.52;1.73;;;7.20;99.90;;;;;;5050207;28;20047;-78
2023/01/15 03:33:14;;;;;;;6.78;1.42;;;7.30;99.90;;;;;;5044752;28;20036;-78
2023/01/15 03:35:45;;;;;;;9.25;1.60;;;7.30;99.90;;;;;;5051649;28;20045;-78
2023/01/15 03:38:19;;;;;;;3.40;1.20;;;7.30;99.90;;;;;;5049247;28;20041;-78
2023/01/15 03:40:58;;;;;;;9.98;1.70;;;7.30;99.90;;;;;;5042043;28;20036;-78
2023/01/15 03:43:41;;;;;;;11.93;2.05;;;7.30;99.90;;;;;;5042567;28;20053;-78
2023/01/15 03:46:25;;;;;;;7.55;1.80;;;7.20;99.90;;;;;;5059044;28;20067;-78
2023/01/15 03:49:01;;;;;;;3.70;0.80;;;7.20;99.90;;;;;;5048412;28;20040;-78
2023/01/15 03:51:46;;;;;;;9.40;1.17;;;7.10;99.90;;;;;;5067790;28;20075;-78
2023/01/15 03:54:22;;;;;;;8.75;1.40;;;7.20;99.90;;;;;;5034178;28;20382;-78
2023/01/15 03:56:57;;;;;;;9.10;1.50;;;7.10;99.90;;;;;;5051496;28;20041;-78
2023/01/15 03:59:32;;;;;;;7.53;1.17;;;7.10;99.90;;;;;;5050824;28;20045;-78
2023/01/15 04:02:00;;;;;;;8.93;1.90;;;7.10;99.90;;;;;;5052266;28;20040;-78
2023/01/15 04:04:27;;;;;;;9.23;1.48;;;7.10;99.90;;;;;;5065796;28;20045;-78
2023/01/15 04:06:54;;;;;;;9.88;1.35;;;7.10;99.90;;;;;;5071127;28;20048;-78
2023/01/15 04:09:22;;;;;;;15.05;2.33;;;7.10;99.90;;;;;;5065266;28;20132;-78
2023/01/15 04:11:47;;;;;;;12.35;2.13;;;7.00;99.90;;;;;;5035183;28;20037;-78
2023/01/15 04:14:14;;;;;;;4.30;1.35;;;7.10;99.90;;;;;;5051363;28;20106;-78
2023/01/15 04:16:40;;;;;;;11.10;1.50;;;7.10;99.90;;;;;;5049953;28;20049;-78
2023/01/15 04:19:05;;;;;;;12.60;1.95;;;7.00;99.90;;;;;;5034761;28;20107;-78
2023/01/15 04:21:31;;;;;;;12.50;1.73;;;7.00;99.90;;;;;;5033291;28;20041;-78
2023/01/15 04:23:57;;;;;;;8.65;1.58;;;7.10;99.90;;;;;;5071189;28;20083;-78
2023/01/15 04:26:22;;;;;;;6.60;1.35;;;7.00;99.90;;;;;;5050125;28;20041;-79
2023/01/15 04:28:48;;;;;;;10.15;1.65;;;7.00;99.90;;;;;;5047029;28;20033;-78
2023/01/15 04:31:14;;;;;;;5.00;1.23;;;6.90;99.90;;;;;;5046023;28;20057;-78
2023/01/15 04:33:40;;;;;;;9.35;1.23;;;7.00;99.90;;;;;;5067473;28;20045;-78
2023/01/15 04:36:07;;;;;;;10.63;1.70;;;7.10;99.90;;;;;;5049973;28;20052;-78
2023/01/15 04:38:33;;;;;;;9.60;1.40;;;7.00;99.90;;;;;;5051631;28;20044;-78
2023/01/15 04:44:05;;;;;;;9.38;1.38;;;6.90;99.90;;;;;;5054474;28;20060;-78
2023/01/15 04:46:32;;;;;;;11.77;2.35;;;6.90;99.90;;;;;;5070549;28;20124;-78
2023/01/15 04:48:58;;;;;;;10.93;1.48;;;6.90;99.90;;;;;;5052943;28;20048;-78
2023/01/15 04:51:24;;;;;;;7.28;2.20;;;6.90;99.90;;;;;;5048708;28;20044;-78
2023/01/15 04:53:49;;;;;;;10.30;1.52;;;6.90;99.90;;;;;;5060029;28;20033;-78
2023/01/15 04:56:15;;;;;;;8.63;1.35;;;6.90;99.90;;;;;;5052876;28;20050;-78
2023/01/15 04:58:40;;;;;;;10.07;1.42;;;6.90;99.90;;;;;;5046113;28;20080;-78
2023/01/15 05:01:14;;;;;;;8.95;1.30;;;6.90;99.90;;;;;;5051687;28;20048;-78
2023/01/15 05:03:40;;;;;;;11.10;1.80;;;6.90;99.90;;;;;;5038650;28;20502;-78
2023/01/15 05:06:06;;;;;;;9.48;1.67;;;6.90;99.90;;;;;;5053679;28;20138;-78
2023/01/15 05:08:32;;;;;;;12.05;1.50;;;6.90;99.90;;;;;;5055587;28;20103;-78
2023/01/15 05:11:02;;;;;;;5.28;1.35;;;6.90;99.90;;;;;;5054277;28;20119;-78
2023/01/15 05:13:31;;;;;;;12.65;1.23;;;6.80;99.90;;;;;;5058942;28;20501;-78
2023/01/15 05:15:56;;;;;;;4.50;1.30;;;6.80;99.90;;;;;;5075031;28;20045;-78
2023/01/15 05:18:22;;;;;;;10.90;1.77;;;6.90;99.90;;;;;;5062319;28;20067;-78
2023/01/15 05:20:47;;;;;;;12.75;1.90;;;6.70;99.90;;;;;;5055106;28;20059;-78
2023/01/15 05:23:13;;;;;;;10.00;1.25;;;6.70;99.90;;;;;;5052980;28;20568;-78
2023/01/15 05:25:39;;;;;;;14.95;1.85;;;6.70;99.90;;;;;;5071546;28;20037;-78
2023/01/15 05:28:04;;;;;;;6.68;1.13;;;6.70;99.90;;;;;;5070523;28;20041;-78
2023/01/15 05:30:30;;;;;;;7.20;1.10;;;6.70;99.90;;;;;;5069546;28;20041;-78
2023/01/15 05:32:55;;;;;;;6.18;0.98;;;6.70;99.90;;;;;;5045004;28;20493;-77
2023/01/15 05:35:21;;;;;;;5.90;1.23;;;6.70;99.90;;;;;;5051541;28;20049;-78
2023/01/15 05:37:46;;;;;;;6.85;1.63;;;6.70;99.90;;;;;;5053196;28;20095;-77
2023/01/15 05:40:12;;;;;;;6.65;1.42;;;6.70;99.90;;;;;;5053301;28;20032;-77
2023/01/15 05:42:38;;;;;;;7.55;1.50;;;6.80;99.90;;;;;;5052944;28;20045;-77
2023/01/15 05:45:04;;;;;;;7.93;1.40;;;6.80;99.90;;;;;;5053974;28;20236;-77
2023/01/15 05:47:29;;;;;;;7.35;1.20;;;6.70;99.90;;;;;;5051048;28;20034;-77
2023/01/15 05:49:55;;;;;;;7.25;1.48;;;6.70;99.90;;;;;;5051408;28;20509;-78
2023/01/15 05:52:20;;;;;;;8.02;1.73;;;6.70;99.90;;;;;;5052244;28;20037;-77
2023/01/15 05:54:49;;;;;;;9.82;1.40;;;6.70;99.90;;;;;;5053313;28;20041;-78
2023/01/15 05:57:14;;;;;;;10.50;1.65;;;6.70;99.90;;;;;;5053254;28;20036;-77
2023/01/15 05:59:40;;;;;;;4.57;0.70;;;6.60;99.90;;;;;;5032604;28;20547;-77
2023/01/15 06:02:06;;;;;;;7.00;1.23;;;6.60;99.90;;;;;;5044871;28;20045;-77
2023/01/15 06:04:31;;;;;;;4.18;1.30;;;6.60;99.90;;;;;;5063001;28;20045;-78
2023/01/15 06:06:57;;;;;;;10.32;1.70;;;6.60;99.90;;;;;;5066832;28;20121;-78
2023/01/15 06:09:26;;;;;;;7.57;1.42;;;6.60;99.90;;;;;;5042605;28;20033;-77
2023/01/15 06:11:52;;;;;;;6.43;0.93;;;6.50;99.90;;;;;;5050842;28;20076;-77
2023/01/15 06:14:18;;;;;;;10.73;2.40;;;6.60;99.90;;;;;;5036674;28;20041;-77
2023/01/15 06:16:45;;;;;;;6.00;1.33;;;6.60;99.90;;;;;;5051959;28;20550;-77
2023/01/15 06:19:11;;;;;;;6.70;1.42;;;6.50;99.90;;;;;;5037278;28;20118;-77
2023/01/15 06:21:37;;;;;;;11.75;1.20;;;6.60;99.90;;;;;;5058130;28;20113;-78
2023/01/15 06:24:03;;;;;;;8.52;1.20;;;6.60;99.90;;;;;;5050135;28;20041;-78
2023/01/15 06:26:28;;;;;;;8.55;1.45;;;6.50;99.90;;;;;;5052580;28;20115;-77
2023/01/15 06:28:54;;;;;;;5.93;1.17;;;6.60;99.90;;;;;;5070362;28;20084;-77
2023/01/15 06:31:22;;;;;;;9.23;1.10;;;6.50;99.90;;;;;;5050770;28;20395;-77
2023/01/15 06:33:47;;;;;;;12.48;2.08;;;6.50;99.90;;;;;;5053013;28;20493;-78
2023/01/15 06:36:16;;;;;;;10.15;1.60;;;6.50;99.90;;;;;;5021808;28;20130;-77
2023/01/15 06:38:43;;;;;;;9.35;1.65;;;6.50;99.90;;;;;;5069336;28;20493;-77
2023/01/15 06:49:32;;;;;;;6.70;1.42;;;6.20;99.90;;;;;;5051490;28;20166;-77
2023/01/15 06:51:58;;;;;;;6.15;1.23;;;6.30;99.90;;;;;;5051928;28;20493;-77
2023/01/15 06:54:23;;;;;;;9.15;2.22;;;6.30;99.90;;;;;;5050464;28;20041;-77
2023/01/15 06:56:49;;;;;;;6.75;0.98;;;6.30;99.90;;;;;;5051206;28;20067;-77
2023/01/15 06:59:15;;;;;;;7.22;1.55;;;6.30;99.90;;;;;;5050192;28;20508;-77
2023/01/15 07:01:40;;;;;;;5.65;1.33;;;6.20;99.90;;;;;;5048677;28;20033;-77
2023/01/15 07:04:06;;;;;;;13.57;2.30;;;6.20;99.90;;;;;;5033031;28;20174;-77
2023/01/15 07:06:32;;;;;;;7.47;1.00;;;6.20;99.90;;;;;;5037313;28;20048;-77
2023/01/15 07:08:57;;;;;;;8.70;1.73;;;6.20;99.90;;;;;;5029152;28;20040;-77
2023/01/15 07:11:23;;;;;;;9.63;1.67;;;6.20;99.90;;;;;;5051111;28;20041;-77
2023/01/15 07:13:48;;;;;;;8.32;1.55;;;6.20;99.90;;;;;;5052900;28;20032;-77
2023/01/15 07:16:26;;;;;;;8.32;0.82;;;6.20;99.90;;;;;;5043729;28;20041;-78
2023/01/15 07:18:54;;;;;;;7.97;1.50;;;6.20;99.90;;;;;;5048714;28;20497;-77
2023/01/15 07:21:19;;;;;;;9.38;1.48;;;6.20;99.90;;;;;;5050552;28;20049;-77
2023/01/15 07:23:45;;;;;;;5.40;1.35;;;6.20;99.90;;;;;;5066207;28;20044;-77
2023/01/15 07:26:10;;;;;;;11.43;1.58;;;6.10;99.90;;;;;;5033169;28;20060;-77
2023/01/15 07:28:36;;;;;;;6.47;1.02;;;6.00;99.90;;;;;;5052361;28;20041;-77
2023/01/15 07:31:02;;;;;;;8.80;1.02;;;6.00;99.90;;;;;;5043954;28;20040;-77
2023/01/15 07:33:27;;;;;;;5.13;0.85;;;6.10;99.90;;;;;;5049763;28;20048;-77
2023/01/15 07:35:53;;;;;;;7.38;1.10;;;6.10;99.90;;;;;;5058389;28;20135;-77
2023/01/15 07:38:18;;;;;;;6.68;1.20;;;6.00;99.90;;;;;;5068214;28;20565;-77
2023/01/15 07:49:43;;;;;;;4.82;1.30;;;6.00;99.90;;;;;;5051598;28;20481;-77
2023/01/15 07:51:41;;;;;;;5.28;1.00;;;6.10;99.90;;;;;;5048690;28;20120;-77
2023/01/15 07:54:07;;;;;;;6.50;1.95;;;6.20;99.90;;;;;;5051619;28;20124;-77
2023/01/15 07:56:33;;;;;;;5.35;1.08;;;6.10;99.90;;;;;;5045267;28;20040;-77
2023/01/15 07:58:58;;;;;;;5.95;0.70;;;6.20;99.90;;;;;;5050893;28;20453;-77
2023/01/15 08:01:24;;;;;;;1.63;0.30;;;6.10;99.90;;;;;;5047547;28;20087;-77
2023/01/15 08:03:49;;;;;;;8.65;1.15;;;6.10;99.90;;;;;;5067675;28;20048;-77
2023/01/15 08:06:15;;;;;;;2.22;0.60;;;6.10;99.90;;;;;;5045064;28;20128;-77
2023/01/15 08:08:40;;;;;;;6.95;1.00;;;6.10;99.90;;;;;;5049157;28;20421;-77
2023/01/15 08:16:35;;;;;;;7.00;1.40;;;6.10;99.90;;;;;;5041382;28;20524;-77
2023/01/15 08:19:01;;;;;;;7.55;1.17;;;6.00;99.90;;;;;;5047934;28;20068;-77
2023/01/15 08:21:27;;;;;;;5.82;0.90;;;6.00;99.90;;;;;;5050429;28;20552;-77
2023/01/15 08:23:53;;;;;;;5.00;1.10;;;6.00;99.90;;;;;;5049341;28;20098;-77
2023/01/15 08:26:18;;;;;;;7.45;1.40;;;6.00;99.90;;;;;;5049435;28;20064;-77
2023/01/15 08:28:44;;;;;;;5.93;0.95;;;6.10;99.90;;;;;;5047163;28;20420;-77
2023/01/15 08:31:09;;;;;;;4.68;0.82;;;6.10;99.90;;;;;;5042840;28;20048;-77
2023/01/15 08:33:35;;;;;;;6.60;1.15;;;6.10;99.90;;;;;;5033568;28;20401;-77
2023/01/15 08:36:01;;;;;;;9.90;1.55;;;6.20;99.90;;;;;;5051180;28;20037;-74
2023/01/15 08:38:26;;;;;;;5.60;1.17;;;6.30;99.90;;;;;;5050789;28;20052;-76
2023/01/15 08:40:59;;;;;;;6.30;1.08;;;6.40;99.90;;;;;;5050409;28;20045;-73
2023/01/15 08:43:31;;;;;;;7.72;1.05;;;6.40;99.90;;;;;;5036494;28;20047;-76
2023/01/15 08:45:58;;;;;;;8.45;1.20;;;6.40;99.90;;;;;;5050277;28;20045;-76
2023/01/15 08:48:24;;;;;;;3.00;0.80;;;6.40;99.90;;;;;;5031055;28;20068;-76
2023/01/15 08:50:50;;;;;;;8.38;1.55;;;6.40;99.90;;;;;;5030806;28;20046;-76
2023/01/15 08:53:18;;;;;;;7.00;1.65;;;6.50;99.90;;;;;;5051441;28;20040;-76
2023/01/15 08:55:44;;;;;;;5.65;1.35;;;6.60;99.90;;;;;;5050360;28;20052;-76
2023/01/15 08:58:09;;;;;;;6.03;0.95;;;6.50;99.90;;;;;;5032634;28;20052;-75
2023/01/15 09:00:35;;;;;;;7.35;1.10;;;6.40;99.90;;;;;;5049108;28;20044;-76
2023/01/15 09:03:01;;;;;;;11.13;2.00;;;6.20;99.90;;;;;;5034282;28;20079;-76
2023/01/15 09:05:29;;;;;;;9.10;1.52;;;6.20;99.90;;;;;;5040248;28;20049;-76
2023/01/15 09:07:55;;;;;;;8.38;1.02;;;6.10;99.90;;;;;;5068070;28;20500;-76
2023/01/15 09:10:21;;;;;;;6.45;0.85;;;6.10;99.90;;;;;;5032677;28;20045;-76
2023/01/15 09:12:47;;;;;;;8.32;1.17;;;6.10;99.90;;;;;;5036204;28;20048;-75
2023/01/15 09:15:13;;;;;;;4.60;0.93;;;6.20;99.90;;;;;;5034779;28;20448;-76
2023/01/15 09:17:39;;;;;;;7.30;1.52;;;6.10;99.90;;;;;;5049894;28;20136;-75
2023/01/15 09:20:07;;;;;;;5.90;0.80;;;6.10;99.90;;;;;;5050302;28;20045;-76
2023/01/15 09:22:33;;;;;;;5.32;1.08;;;6.10;99.90;;;;;;5031398;28;20042;-75
2023/01/15 09:24:59;;;;;;;6.43;1.00;;;6.00;99.90;;;;;;5051578;28;20405;-76
2023/01/15 09:27:25;;;;;;;6.03;1.35;;;6.00;99.90;;;;;;5054067;28;20072;-76
2023/01/15 09:29:51;;;;;;;6.82;1.23;;;5.90;99.90;;;;;;5053037;28;20037;-76
2023/01/15 09:32:16;;;;;;;5.28;1.63;;;5.80;99.90;;;;;;5050738;28;20052;-76
2023/01/15 09:34:42;;;;;;;7.03;0.98;;;5.80;99.90;;;;;;5070804;28;20409;-76
2023/01/15 09:37:08;;;;;;;4.47;0.82;;;5.80;99.90;;;;;;5053489;28;20048;-75
2023/01/15 09:39:33;;;;;;;3.95;0.68;;;5.70;99.90;;;;;;5051917;28;20060;-76
2023/01/15 09:42:08;;;;;;;5.47;0.85;;;5.80;99.90;;;;;;5054674;28;20048;-76
2023/01/15 09:44:52;;;;;;;4.70;0.80;;;5.80;99.90;;;;;;5036123;28;20046;-76
2023/01/15 09:47:37;;;;;;;8.68;1.52;;;5.70;99.90;;;;;;5062133;28;20038;-75
2023/01/15 09:50:30;;;;;;;4.80;1.10;;;5.80;99.90;;;;;;5034313;28;20037;-75
2023/01/15 09:53:07;;;;;;;4.95;0.68;;;5.90;99.90;;;;;;5067187;28;20156;-76
2023/01/15 09:55:39;;;;;;;2.30;0.40;;;5.90;99.90;;;;;;5063918;28;20128;-75
2023/01/15 09:58:09;;;;;;;8.90;1.23;;;5.90;99.90;;;;;;5060388;28;20056;-75
2023/01/15 10:00:41;;;;;;;6.72;1.00;;;5.90;99.90;;;;;;5036393;28;20044;-76
2023/01/15 10:03:31;;;;;;;3.65;0.75;;;6.00;99.90;;;;;;5052182;28;20056;-76
2023/01/15 10:06:20;;;;;;;7.32;1.10;;;6.10;99.90;;;;;;5036927;28;20079;-76
2023/01/15 10:08:49;;;;;;;3.45;0.75;;;6.10;99.90;;;;;;5034003;28;20037;-76
2023/01/15 10:11:14;;;;;;;1.30;0.60;;;6.10;99.90;;;;;;5053064;28;20049;-76
2023/01/15 10:14:05;;;;;;;15.75;1.33;;;6.10;99.90;;;;;;5042162;28;20044;-76
2023/01/15 10:16:34;;;;;;;6.80;1.40;;;6.10;99.90;;;;;;5036882;28;20045;-76
2023/01/15 10:19:01;;;;;;;4.63;1.00;;;6.10;99.90;;;;;;5056877;28;20051;-76
2023/01/15 10:21:53;;;;;;;3.55;0.75;;;6.10;99.90;;;;;;5067250;28;20076;-76
2023/01/15 10:24:38;;;;;;;7.28;1.42;;;6.10;99.90;;;;;;5049146;28;20120;-76
2023/01/15 10:27:22;;;;;;;8.00;1.33;;;6.20;99.90;;;;;;5045136;28;20056;-76
2023/01/15 10:30:23;;;;;;;10.88;1.52;;;6.10;99.90;;;;;;5037419;28;20041;-76
2023/01/15 10:32:55;;;;;;;10.88;1.80;;;6.20;99.90;;;;;;5040765;28;20055;-76
2023/01/15 10:35:46;;;;;;;2.38;0.95;;;6.30;99.90;;;;;;5051981;28;20436;-76
2023/01/15 10:38:18;;;;;;;6.00;1.67;;;6.30;99.90;;;;;;5065618;28;20071;-76
2023/01/15 10:40:52;;;;;;;7.68;1.73;;;6.40;99.90;;;;;;5053505;28;20409;-76
2023/01/15 10:43:50;;;;;;;4.85;0.82;;;6.40;99.90;;;;;;5053608;28;20076;-77
2023/01/15 10:46:21;;;;;;;8.20;1.42;;;6.50;99.90;;;;;;5051435;28;20045;-76
2023/01/15 10:48:53;;;;;;;5.57;1.27;;;6.40;99.90;;;;;;5050327;28;20445;-76
2023/01/15 10:51:36;;;;;;;8.55;1.80;;;6.40;99.90;;;;;;5050500;28;20041;-76
2023/01/15 10:54:16;;;;;;;9.32;1.35;;;6.40;99.90;;;;;;5036363;28;20503;-76
2023/01/15 10:56:44;;;;;;;5.93;1.05;;;6.30;99.90;;;;;;5052062;28;20068;-77
2023/01/15 10:59:26;;;;;;;5.95;0.82;;;6.20;99.90;;;;;;5038901;28;20057;-77
2023/01/15 11:01:55;;;;;;;5.43;1.10;;;6.20;99.90;;;;;;5033430;28;20037;-76
2023/01/15 11:04:22;;;;;;;9.93;2.03;;;6.00;99.90;;;;;;5029452;28;20114;-76
2023/01/15 11:06:47;;;;;;;3.08;0.93;;;5.90;99.90;;;;;;5040257;28;20413;-76
2023/01/15 11:09:22;;;;;;;9.07;1.42;;;5.90;99.90;;;;;;5052789;28;20055;-76
2023/01/15 11:20:30;;;;;;;8.80;1.60;;;6.00;99.90;;;;;;5049941;28;20048;-76
2023/01/15 11:23:04;;;;;;;3.92;0.63;;;5.90;99.90;;;;;;5049125;28;20047;-76
2023/01/15 11:25:31;;;;;;;6.88;1.48;;;6.00;99.90;;;;;;5058061;28;20041;-76
2023/01/15 11:28:00;;;;;;;8.85;1.30;;;6.10;99.90;;;;;;5048160;28;20094;-76
2023/01/15 11:30:33;;;;;;;8.43;1.27;;;6.20;99.90;;;;;;5034850;28;20091;-76
2023/01/15 11:33:02;;;;;;;4.30;1.38;;;6.30;99.90;;;;;;5050984;28;20087;-77
2023/01/15 11:35:28;;;;;;;6.38;1.58;;;6.30;99.90;;;;;;5044877;28;20055;-76
2023/01/15 11:38:12;;;;;;;7.05;1.45;;;6.40;99.90;;;;;;5045460;28;20397;-76
2023/01/15 11:40:37;;;;;;;6.22;1.63;;;6.50;99.90;;;;;;5054749;28;20160;-77
2023/01/15 11:51:40;;;;;;;5.20;1.52;;;6.60;99.90;;;;;;5049525;28;20493;-76
2023/01/15 11:54:10;;;;;;;10.70;1.70;;;6.70;99.90;;;;;;5039439;28;20033;-76
2023/01/15 11:56:39;;;;;;;6.22;1.20;;;6.80;99.90;;;;;;5049650;28;20493;-77
2023/01/15 11:59:11;;;;;;;5.28;1.27;;;6.90;99.90;;;;;;5034202;28;20043;-76
2023/01/15 12:01:45;;;;;;;6.40;0.93;;;6.90;99.90;;;;;;5050883;28;20095;-77
2023/01/15 12:04:29;;;;;;;3.30;1.05;;;7.00;99.90;;;;;;5041677;28;20514;-77
2023/01/15 12:06:56;;;;;;;12.27;1.90;;;7.10;99.90;;;;;;5051090;28;20041;-76
2023/01/15 12:09:42;;;;;;;4.78;1.75;;;7.20;99.90;;;;;;5051414;28;20037;-77
2023/01/15 12:12:39;;;;;;;9.05;1.95;;;7.20;99.90;;;;;;5042255;28;20413;-77
2023/01/15 12:15:11;;;;;;;7.80;1.33;;;7.20;99.90;;;;;;5048761;28;20558;-76
2023/01/15 12:17:48;;;;;;;11.40;2.05;;;7.40;99.90;;;;;;5067598;28;20064;-77
2023/01/15 12:20:45;;;;;;;7.43;1.30;;;7.40;99.90;;;;;;5047989;28;20409;-77
2023/01/15 12:23:29;;;;;;;11.10;1.60;;;7.50;99.90;;;;;;5047600;28;20574;-76
2023/01/15 12:26:15;;;;;;;6.53;1.73;;;7.50;99.90;;;;;;5047725;28;20037;-76
2023/01/15 12:28:56;;;;;;;9.50;1.77;;;7.50;99.90;;;;;;5040166;28;20034;-77
2023/01/15 12:31:28;;;;;;;12.95;2.05;;;7.50;99.90;;;;;;5046316;28;20047;-76
2023/01/15 12:34:04;;;;;;;9.52;1.75;;;7.60;99.90;;;;;;5045685;28;20045;-77
2023/01/15 12:36:37;;;;;;;5.85;1.45;;;7.50;99.90;;;;;;5037732;28;20079;-77
2023/01/15 12:39:11;;;;;;;8.35;1.60;;;7.50;99.90;;;;;;5032369;28;20501;-77
2023/01/15 12:47:32;;;;;;;8.48;1.35;;;7.60;99.90;;;;;;5041273;28;19924;-76
2023/01/15 12:50:26;;;;;;;9.77;1.88;;;7.50;99.90;;;;;;5048511;28;20036;-77
2023/01/15 12:53:20;;;;;;;10.23;1.65;;;7.40;99.90;;;;;;5051013;28;20037;-77
2023/01/15 12:56:14;;;;;;;16.77;2.42;;;7.30;99.90;;;;;;5050272;28;20037;-77
2023/01/15 12:58:53;;;;;;;12.85;2.20;;;7.40;99.90;;;;;;5039471;28;20049;-77
2023/01/15 13:01:36;;;;;;;11.27;1.70;;;7.40;99.90;;;;;;5045924;28;20398;-77
2023/01/15 13:04:35;;;;;;;9.38;1.33;;;7.40;99.90;;;;;;5048923;28;20041;-79
2023/01/15 13:07:24;;;;;;;5.78;1.33;;;7.70;99.90;;;;;;5053511;28;20080;-77
2023/01/15 13:10:21;;;;;;;8.45;1.10;;;7.70;99.90;;;;;;5059057;28;20045;-76
2023/01/15 13:12:47;;;;;;;12.77;1.30;;;7.70;99.90;;;;;;5051507;28;20080;-80
2023/01/15 13:15:16;;;;;;;8.55;1.77;;;7.70;99.90;;;;;;5051447;28;20241;-76
2023/01/15 13:17:48;;;;;;;9.02;1.55;;;7.70;99.90;;;;;;5035552;28;20390;-75
2023/01/15 13:20:32;;;;;;;13.63;2.40;;;7.70;99.90;;;;;;5042094;28;20041;-79
2023/01/15 13:23:08;;;;;;;8.60;1.67;;;7.80;99.90;;;;;;5054332;28;20049;-80
2023/01/15 13:25:53;;;;;;;11.88;1.65;;;7.60;99.90;;;;;;5053705;28;20049;-77
2023/01/15 13:28:46;;;;;;;11.23;1.42;;;7.20;99.90;;;;;;5053886;28;20045;-78
2023/01/15 13:31:39;;;;;;;8.18;1.30;;;7.00;99.90;;;;;;5054471;28;20045;-77
2023/01/15 13:34:39;;;;;;;8.65;1.95;;;6.80;99.90;;;;;;5054211;28;20489;-75
2023/01/15 13:37:19;;;;;;;10.00;1.75;;;6.70;99.90;;;;;;5047087;28;20057;-75
2023/01/15 13:39:46;;;;;;;7.70;1.00;;;6.50;99.90;;;;;;5051301;28;20498;-76
2023/01/15 13:42:45;;;;;;;6.60;1.23;;;6.40;99.90;;;;;;5063003;28;20492;-76
2023/01/15 13:45:13;;;;;;;7.30;1.20;;;6.20;99.90;;;;;;5040663;28;20057;-77
2023/01/15 13:47:45;;;;;;;6.50;0.82;;;6.10;99.90;;;;;;5047173;28;20072;-77
2023/01/15 13:50:17;;;;;;;7.35;1.40;;;6.10;99.90;;;;;;5034184;28;20045;-77
2023/01/15 13:52:43;;;;;;;6.90;1.10;;;6.10;99.90;;;;;;5047282;28;20562;-76
2023/01/15 13:55:18;;;;;;;7.00;1.33;;;6.00;99.90;;;;;;5045699;28;20506;-77
2023/01/15 13:57:44;;;;;;;7.10;1.15;;;6.00;99.90;;;;;;5043098;28;20102;-77
2023/01/15 14:00:35;;;;;;;6.63;1.20;;;6.10;99.90;;;;;;5051782;28;20448;-76
2023/01/15 14:03:23;;;;;;;6.20;0.95;;;6.00;99.90;;;;;;5048036;28;20049;-76
2023/01/15 14:06:03;;;;;;;3.92;0.77;;;6.00;99.90;;;;;;5050643;28;20151;-77
2023/01/15 14:08:42;;;;;;;4.78;1.10;;;6.10;99.90;;;;;;5052529;28;20069;-77
2023/01/15 14:11:38;;;;;;;4.15;0.90;;;6.00;99.90;;;;;;5044541;28;20037;-76